sensor_id;sensor_type;location;lat;lon;timestamp;temperature;humidity
36498;DHT22;22513;51.222;6.480;2024-01-16T00:01:43;19.70;46.20
36498;DHT22;22513;51.222;6.480;2024-01-16T00:04:09;19.70;46.20
36498;DHT22;22513;51.222;6.480;2024-01-16T00:06:40;19.60;46.10
36498;DHT22;22513;51.222;6.480;2024-01-16T00:09:06;19.60;46.10
36498;DHT22;22513;51.222;6.480;2024-01-16T00:11:31;19.60;46.10
36498;DHT22;22513;51.222;6.480;2024-01-16T00:13:57;19.60;46.10
36498;DHT22;22513;51.222;6.480;2024-01-16T00:16:22;19.60;46.10
36498;DHT22;22513;51.222;6.480;2024-01-16T00:18:48;19.70;46.20
36498;DHT22;22513;51.222;6.480;2024-01-16T00:21:14;19.70;46.20
36498;DHT22;22513;51.222;6.480;2024-01-16T00:23:39;19.70;46.20
36498;DHT22;22513;51.222;6.480;2024-01-16T00:26:05;19.70;46.20
36498;DHT22;22513;51.222;6.480;2024-01-16T00:28:31;19.70;46.20
36498;DHT22;22513;51.222;6.480;2024-01-16T00:30:57;19.60;46.20
36498;DHT22;22513;51.222;6.480;2024-01-16T00:33:23;19.60;46.20
36498;DHT22;22513;51.222;6.480;2024-01-16T00:35:49;19.70;46.20
36498;DHT22;22513;51.222;6.480;2024-01-16T00:38:15;19.70;46.20
36498;DHT22;22513;51.222;6.480;2024-01-16T00:40:40;19.60;46.20
36498;DHT22;22513;51.222;6.480;2024-01-16T00:43:06;19.70;46.20
36498;DHT22;22513;51.222;6.480;2024-01-16T00:45:31;19.70;46.30
36498;DHT22;22513;51.222;6.480;2024-01-16T00:47:57;19.60;46.20
36498;DHT22;22513;51.222;6.480;2024-01-16T00:50:22;19.60;46.20
36498;DHT22;22513;51.222;6.480;2024-01-16T00:52:49;19.70;46.30
36498;DHT22;22513;51.222;6.480;2024-01-16T00:55:15;19.60;46.20
36498;DHT22;22513;51.222;6.480;2024-01-16T00:57:41;19.60;46.20
36498;DHT22;22513;51.222;6.480;2024-01-16T01:00:07;19.70;46.30
36498;DHT22;22513;51.222;6.480;2024-01-16T01:02:33;19.60;46.20
36498;DHT22;22513;51.222;6.480;2024-01-16T01:04:58;19.60;46.20
36498;DHT22;22513;51.222;6.480;2024-01-16T01:07:24;19.60;46.20
36498;DHT22;22513;51.222;6.480;2024-01-16T01:09:51;19.60;46.20
36498;DHT22;22513;51.222;6.480;2024-01-16T01:12:16;19.60;46.20
36498;DHT22;22513;51.222;6.480;2024-01-16T01:14:42;19.60;46.20
36498;DHT22;22513;51.222;6.480;2024-01-16T01:17:07;19.70;46.30
36498;DHT22;22513;51.222;6.480;2024-01-16T01:19:33;19.60;46.20
36498;DHT22;22513;51.222;6.480;2024-01-16T01:21:59;19.70;46.30
36498;DHT22;22513;51.222;6.480;2024-01-16T01:24:24;19.70;46.30
36498;DHT22;22513;51.222;6.480;2024-01-16T01:26:50;19.60;46.20
36498;DHT22;22513;51.222;6.480;2024-01-16T01:29:15;19.60;46.30
36498;DHT22;22513;51.222;6.480;2024-01-16T01:31:45;19.70;46.30
36498;DHT22;22513;51.222;6.480;2024-01-16T01:34:12;19.60;46.30
36498;DHT22;22513;51.222;6.480;2024-01-16T01:36:38;19.60;46.20
36498;DHT22;22513;51.222;6.480;2024-01-16T01:39:03;19.70;46.30
36498;DHT22;22513;51.222;6.480;2024-01-16T01:41:29;19.60;46.30
36498;DHT22;22513;51.222;6.480;2024-01-16T01:43:54;19.70;46.30
36498;DHT22;22513;51.222;6.480;2024-01-16T01:46:21;19.60;46.30
36498;DHT22;22513;51.222;6.480;2024-01-16T01:48:48;19.60;46.30
36498;DHT22;22513;51.222;6.480;2024-01-16T01:51:14;19.70;46.30
36498;DHT22;22513;51.222;6.480;2024-01-16T01:53:43;19.60;46.30
36498;DHT22;22513;51.222;6.480;2024-01-16T01:56:12;19.60;46.30
36498;DHT22;22513;51.222;6.480;2024-01-16T01:58:41;19.70;46.40
36498;DHT22;22513;51.222;6.480;2024-01-16T02:01:08;19.70;46.40
36498;DHT22;22513;51.222;6.480;2024-01-16T02:03:45;19.70;46.40
36498;DHT22;22513;51.222;6.480;2024-01-16T02:06:12;19.70;46.40
36498;DHT22;22513;51.222;6.480;2024-01-16T02:08:39;19.60;46.30
36498;DHT22;22513;51.222;6.480;2024-01-16T02:11:05;19.70;46.40
36498;DHT22;22513;51.222;6.480;2024-01-16T02:13:33;19.60;46.30
36498;DHT22;22513;51.222;6.480;2024-01-16T02:15:59;19.70;46.40
36498;DHT22;22513;51.222;6.480;2024-01-16T02:18:25;19.70;46.40
36498;DHT22;22513;51.222;6.480;2024-01-16T02:20:50;19.70;46.40
36498;DHT22;22513;51.222;6.480;2024-01-16T02:23:21;19.60;46.40
36498;DHT22;22513;51.222;6.480;2024-01-16T02:25:50;19.60;46.30
36498;DHT22;22513;51.222;6.480;2024-01-16T02:28:15;19.60;46.30
36498;DHT22;22513;51.222;6.480;2024-01-16T02:30:42;19.60;46.30
36498;DHT22;22513;51.222;6.480;2024-01-16T02:33:07;19.60;46.30
36498;DHT22;22513;51.222;6.480;2024-01-16T02:35:33;19.70;46.40
36498;DHT22;22513;51.222;6.480;2024-01-16T02:37:59;19.60;46.30
36498;DHT22;22513;51.222;6.480;2024-01-16T02:40:26;19.60;46.40
36498;DHT22;22513;51.222;6.480;2024-01-16T02:42:52;19.60;46.40
36498;DHT22;22513;51.222;6.480;2024-01-16T02:45:17;19.60;46.30
36498;DHT22;22513;51.222;6.480;2024-01-16T02:47:43;19.60;46.40
36498;DHT22;22513;51.222;6.480;2024-01-16T02:50:09;19.60;46.30
36498;DHT22;22513;51.222;6.480;2024-01-16T02:52:37;19.70;46.40
36498;DHT22;22513;51.222;6.480;2024-01-16T02:55:03;19.70;46.40
36498;DHT22;22513;51.222;6.480;2024-01-16T02:57:30;19.70;46.40
36498;DHT22;22513;51.222;6.480;2024-01-16T02:59:55;19.70;46.40
36498;DHT22;22513;51.222;6.480;2024-01-16T03:02:21;19.70;46.50
36498;DHT22;22513;51.222;6.480;2024-01-16T03:04:48;19.70;46.40
36498;DHT22;22513;51.222;6.480;2024-01-16T03:07:14;19.60;46.40
36498;DHT22;22513;51.222;6.480;2024-01-16T03:09:40;19.60;46.40
36498;DHT22;22513;51.222;6.480;2024-01-16T03:12:05;19.70;46.40
36498;DHT22;22513;51.222;6.480;2024-01-16T03:14:31;19.60;46.40
36498;DHT22;22513;51.222;6.480;2024-01-16T03:17:04;19.70;46.50
36498;DHT22;22513;51.222;6.480;2024-01-16T03:19:30;19.70;46.50
36498;DHT22;22513;51.222;6.480;2024-01-16T03:21:56;19.70;46.40
36498;DHT22;22513;51.222;6.480;2024-01-16T03:24:21;19.60;46.40
36498;DHT22;22513;51.222;6.480;2024-01-16T03:26:47;19.70;46.50
36498;DHT22;22513;51.222;6.480;2024-01-16T03:29:13;19.70;46.50
36498;DHT22;22513;51.222;6.480;2024-01-16T03:31:39;19.70;46.50
36498;DHT22;22513;51.222;6.480;2024-01-16T03:34:04;19.60;46.40
36498;DHT22;22513;51.222;6.480;2024-01-16T03:36:30;19.60;46.40
36498;DHT22;22513;51.222;6.480;2024-01-16T03:38:56;19.60;46.40
36498;DHT22;22513;51.222;6.480;2024-01-16T03:41:22;19.60;46.40
36498;DHT22;22513;51.222;6.480;2024-01-16T03:43:47;19.70;46.50
36498;DHT22;22513;51.222;6.480;2024-01-16T03:46:13;19.60;46.40
36498;DHT22;22513;51.222;6.480;2024-01-16T03:48:39;19.60;46.40
36498;DHT22;22513;51.222;6.480;2024-01-16T03:51:05;19.60;46.40
36498;DHT22;22513;51.222;6.480;2024-01-16T03:53:32;19.60;46.40
36498;DHT22;22513;51.222;6.480;2024-01-16T03:55:58;19.70;46.50
36498;DHT22;22513;51.222;6.480;2024-01-16T03:58:23;19.70;46.50
36498;DHT22;22513;51.222;6.480;2024-01-16T04:00:49;19.60;46.40
36498;DHT22;22513;51.222;6.480;2024-01-16T04:03:16;19.70;46.50
36498;DHT22;22513;51.222;6.480;2024-01-16T04:05:42;19.60;46.40
36498;DHT22;22513;51.222;6.480;2024-01-16T04:08:07;19.70;46.50
36498;DHT22;22513;51.222;6.480;2024-01-16T04:10:33;19.60;46.40
36498;DHT22;22513;51.222;6.480;2024-01-16T04:13:02;19.60;46.50
36498;DHT22;22513;51.222;6.480;2024-01-16T04:15:28;19.60;46.50
36498;DHT22;22513;51.222;6.480;2024-01-16T04:17:54;19.70;46.50
36498;DHT22;22513;51.222;6.480;2024-01-16T04:20:20;19.60;46.50
36498;DHT22;22513;51.222;6.480;2024-01-16T04:22:45;19.60;46.40
36498;DHT22;22513;51.222;6.480;2024-01-16T04:25:11;19.60;46.50
36498;DHT22;22513;51.222;6.480;2024-01-16T04:27:37;19.60;46.50
36498;DHT22;22513;51.222;6.480;2024-01-16T04:30:03;19.60;46.50
36498;DHT22;22513;51.222;6.480;2024-01-16T04:32:29;19.60;46.50
36498;DHT22;22513;51.222;6.480;2024-01-16T04:34:55;19.60;46.50
36498;DHT22;22513;51.222;6.480;2024-01-16T04:37:20;19.60;46.50
36498;DHT22;22513;51.222;6.480;2024-01-16T04:39:46;19.60;46.50
36498;DHT22;22513;51.222;6.480;2024-01-16T04:42:11;19.60;46.50
36498;DHT22;22513;51.222;6.480;2024-01-16T04:44:37;19.70;46.50
36498;DHT22;22513;51.222;6.480;2024-01-16T04:47:03;19.60;46.50
36498;DHT22;22513;51.222;6.480;2024-01-16T04:49:28;19.60;46.50
36498;DHT22;22513;51.222;6.480;2024-01-16T04:51:54;19.60;46.50
36498;DHT22;22513;51.222;6.480;2024-01-16T04:54:19;19.60;46.50
36498;DHT22;22513;51.222;6.480;2024-01-16T04:56:45;19.60;46.50
36498;DHT22;22513;51.222;6.480;2024-01-16T04:59:11;19.60;46.50
36498;DHT22;22513;51.222;6.480;2024-01-16T05:01:36;19.60;47.20
36498;DHT22;22513;51.222;6.480;2024-01-16T05:04:02;19.60;46.60
36498;DHT22;22513;51.222;6.480;2024-01-16T05:06:29;19.60;46.50
36498;DHT22;22513;51.222;6.480;2024-01-16T05:08:55;19.60;46.50
36498;DHT22;22513;51.222;6.480;2024-01-16T05:11:21;19.60;46.50
36498;DHT22;22513;51.222;6.480;2024-01-16T05:13:46;19.60;46.50
36498;DHT22;22513;51.222;6.480;2024-01-16T05:16:13;19.70;46.40
36498;DHT22;22513;51.222;6.480;2024-01-16T05:18:41;19.60;46.30
36498;DHT22;22513;51.222;6.480;2024-01-16T05:21:08;19.60;46.20
36498;DHT22;22513;51.222;6.480;2024-01-16T05:23:34;19.60;46.20
36498;DHT22;22513;51.222;6.480;2024-01-16T05:25:59;19.60;46.10
36498;DHT22;22513;51.222;6.480;2024-01-16T05:28:25;19.60;46.10
36498;DHT22;22513;51.222;6.480;2024-01-16T05:30:51;19.70;46.10
36498;DHT22;22513;51.222;6.480;2024-01-16T05:33:16;19.60;46.00
36498;DHT22;22513;51.222;6.480;2024-01-16T05:35:42;19.60;46.00
36498;DHT22;22513;51.222;6.480;2024-01-16T05:38:07;19.60;45.90
36498;DHT22;22513;51.222;6.480;2024-01-16T05:40:33;19.70;45.80
36498;DHT22;22513;51.222;6.480;2024-01-16T05:42:58;19.70;45.80
36498;DHT22;22513;51.222;6.480;2024-01-16T05:45:24;19.60;45.70
36498;DHT22;22513;51.222;6.480;2024-01-16T05:47:50;19.60;45.70
36498;DHT22;22513;51.222;6.480;2024-01-16T05:50:15;19.60;45.60
36498;DHT22;22513;51.222;6.480;2024-01-16T05:52:44;19.60;45.60
36498;DHT22;22513;51.222;6.480;2024-01-16T05:55:09;19.70;45.60
36498;DHT22;22513;51.222;6.480;2024-01-16T05:57:36;19.60;45.40
36498;DHT22;22513;51.222;6.480;2024-01-16T06:00:03;19.60;45.30
36498;DHT22;22513;51.222;6.480;2024-01-16T06:02:29;19.60;45.30
36498;DHT22;22513;51.222;6.480;2024-01-16T06:04:55;19.70;45.30
36498;DHT22;22513;51.222;6.480;2024-01-16T06:07:20;19.70;45.20
36498;DHT22;22513;51.222;6.480;2024-01-16T06:09:46;19.60;45.20
36498;DHT22;22513;51.222;6.480;2024-01-16T06:12:12;19.60;45.10
36498;DHT22;22513;51.222;6.480;2024-01-16T06:14:37;19.70;45.10
36498;DHT22;22513;51.222;6.480;2024-01-16T06:17:04;19.70;45.00
36498;DHT22;22513;51.222;6.480;2024-01-16T06:19:33;19.70;45.00
36498;DHT22;22513;51.222;6.480;2024-01-16T06:21:59;19.70;44.90
36498;DHT22;22513;51.222;6.480;2024-01-16T06:24:25;19.60;44.80
36498;DHT22;22513;51.222;6.480;2024-01-16T06:26:51;19.70;44.80
36498;DHT22;22513;51.222;6.480;2024-01-16T06:29:17;19.70;44.80
36498;DHT22;22513;51.222;6.480;2024-01-16T06:31:43;19.70;44.80
36498;DHT22;22513;51.222;6.480;2024-01-16T06:34:11;19.60;44.60
36498;DHT22;22513;51.222;6.480;2024-01-16T06:36:37;19.70;44.70
36498;DHT22;22513;51.222;6.480;2024-01-16T06:39:02;19.60;44.60
36498;DHT22;22513;51.222;6.480;2024-01-16T06:41:29;19.70;44.60
36498;DHT22;22513;51.222;6.480;2024-01-16T06:43:54;19.60;44.50
36498;DHT22;22513;51.222;6.480;2024-01-16T06:46:20;19.70;44.50
36498;DHT22;22513;51.222;6.480;2024-01-16T06:48:46;19.60;44.40
36498;DHT22;22513;51.222;6.480;2024-01-16T06:51:11;19.60;44.40
36498;DHT22;22513;51.222;6.480;2024-01-16T06:53:39;19.60;44.30
36498;DHT22;22513;51.222;6.480;2024-01-16T06:56:06;19.60;44.20
36498;DHT22;22513;51.222;6.480;2024-01-16T06:58:33;19.60;44.20
36498;DHT22;22513;51.222;6.480;2024-01-16T07:00:58;19.60;44.20
36498;DHT22;22513;51.222;6.480;2024-01-16T07:03:25;19.60;44.10
36498;DHT22;22513;51.222;6.480;2024-01-16T07:05:51;19.60;44.10
36498;DHT22;22513;51.222;6.480;2024-01-16T07:08:17;19.70;44.10
36498;DHT22;22513;51.222;6.480;2024-01-16T07:10:42;19.60;44.00
36498;DHT22;22513;51.222;6.480;2024-01-16T07:13:09;19.60;43.90
36498;DHT22;22513;51.222;6.480;2024-01-16T07:15:35;19.60;43.90
36498;DHT22;22513;51.222;6.480;2024-01-16T07:18:01;19.70;43.90
36498;DHT22;22513;51.222;6.480;2024-01-16T07:20:26;19.60;43.80
36498;DHT22;22513;51.222;6.480;2024-01-16T07:22:52;19.60;43.80
36498;DHT22;22513;51.222;6.480;2024-01-16T07:25:17;19.60;43.80
36498;DHT22;22513;51.222;6.480;2024-01-16T07:27:46;19.60;43.70
36498;DHT22;22513;51.222;6.480;2024-01-16T07:30:14;19.60;43.60
36498;DHT22;22513;51.222;6.480;2024-01-16T07:32:40;19.60;43.60
36498;DHT22;22513;51.222;6.480;2024-01-16T07:35:06;19.60;43.60
36498;DHT22;22513;51.222;6.480;2024-01-16T07:37:32;19.60;43.50
36498;DHT22;22513;51.222;6.480;2024-01-16T07:39:58;19.60;43.50
36498;DHT22;22513;51.222;6.480;2024-01-16T07:42:24;19.60;43.40
36498;DHT22;22513;51.222;6.480;2024-01-16T07:44:50;19.60;43.40
36498;DHT22;22513;51.222;6.480;2024-01-16T07:47:16;19.60;43.30
36498;DHT22;22513;51.222;6.480;2024-01-16T07:49:42;19.60;43.30
36498;DHT22;22513;51.222;6.480;2024-01-16T07:52:08;19.60;43.20
36498;DHT22;22513;51.222;6.480;2024-01-16T07:54:34;19.60;43.20
36498;DHT22;22513;51.222;6.480;2024-01-16T07:56:59;19.70;43.20
36498;DHT22;22513;51.222;6.480;2024-01-16T07:59:25;19.60;43.10
36498;DHT22;22513;51.222;6.480;2024-01-16T08:01:52;19.70;43.10
36498;DHT22;22513;51.222;6.480;2024-01-16T08:04:17;19.70;43.10
36498;DHT22;22513;51.222;6.480;2024-01-16T08:06:43;19.60;42.90
36498;DHT22;22513;51.222;6.480;2024-01-16T08:09:09;19.70;42.90
36498;DHT22;22513;51.222;6.480;2024-01-16T08:11:37;19.70;42.90
36498;DHT22;22513;51.222;6.480;2024-01-16T08:14:05;19.70;42.80
36498;DHT22;22513;51.222;6.480;2024-01-16T08:16:30;19.70;42.80
36498;DHT22;22513;51.222;6.480;2024-01-16T08:18:56;19.70;42.80
36498;DHT22;22513;51.222;6.480;2024-01-16T08:21:22;19.70;42.80
36498;DHT22;22513;51.222;6.480;2024-01-16T08:23:47;19.70;42.80
36498;DHT22;22513;51.222;6.480;2024-01-16T08:26:13;19.70;42.70
36498;DHT22;22513;51.222;6.480;2024-01-16T08:28:38;19.00;42.30
36498;DHT22;22513;51.222;6.480;2024-01-16T08:31:04;19.80;42.70
36498;DHT22;22513;51.222;6.480;2024-01-16T08:33:30;19.70;42.60
36498;DHT22;22513;51.222;6.480;2024-01-16T08:35:56;19.80;42.60
36498;DHT22;22513;51.222;6.480;2024-01-16T08:38:22;19.80;42.50
36498;DHT22;22513;51.222;6.480;2024-01-16T08:40:48;19.70;42.50
36498;DHT22;22513;51.222;6.480;2024-01-16T08:43:14;19.80;42.50
36498;DHT22;22513;51.222;6.480;2024-01-16T08:45:39;19.80;42.50
36498;DHT22;22513;51.222;6.480;2024-01-16T08:48:05;19.80;42.40
36498;DHT22;22513;51.222;6.480;2024-01-16T08:50:31;19.80;42.40
36498;DHT22;22513;51.222;6.480;2024-01-16T08:52:56;19.80;42.30
36498;DHT22;22513;51.222;6.480;2024-01-16T08:55:22;19.80;42.30
36498;DHT22;22513;51.222;6.480;2024-01-16T08:57:47;19.80;42.30
36498;DHT22;22513;51.222;6.480;2024-01-16T09:00:13;19.80;42.20
36498;DHT22;22513;51.222;6.480;2024-01-16T09:02:40;19.80;42.10
36498;DHT22;22513;51.222;6.480;2024-01-16T09:05:06;19.90;42.10
36498;DHT22;22513;51.222;6.480;2024-01-16T09:07:32;19.80;42.00
36498;DHT22;22513;51.222;6.480;2024-01-16T09:09:58;19.90;42.00
36498;DHT22;22513;51.222;6.480;2024-01-16T09:12:23;19.80;42.00
36498;DHT22;22513;51.222;6.480;2024-01-16T09:14:49;19.90;42.00
36498;DHT22;22513;51.222;6.480;2024-01-16T09:17:15;19.90;41.90
36498;DHT22;22513;51.222;6.480;2024-01-16T09:19:40;19.90;41.90
36498;DHT22;22513;51.222;6.480;2024-01-16T09:22:07;19.90;41.90
36498;DHT22;22513;51.222;6.480;2024-01-16T09:24:32;19.90;41.80
36498;DHT22;22513;51.222;6.480;2024-01-16T09:26:58;19.90;41.80
36498;DHT22;22513;51.222;6.480;2024-01-16T09:29:24;19.90;41.90
36498;DHT22;22513;51.222;6.480;2024-01-16T09:31:50;19.90;41.80
36498;DHT22;22513;51.222;6.480;2024-01-16T09:34:17;19.90;41.70
36498;DHT22;22513;51.222;6.480;2024-01-16T09:36:43;19.90;41.80
36498;DHT22;22513;51.222;6.480;2024-01-16T09:39:09;19.90;41.70
36498;DHT22;22513;51.222;6.480;2024-01-16T09:41:39;19.90;41.60
36498;DHT22;22513;51.222;6.480;2024-01-16T09:44:05;19.90;41.60
36498;DHT22;22513;51.222;6.480;2024-01-16T09:46:33;19.90;41.60
36498;DHT22;22513;51.222;6.480;2024-01-16T09:49:00;19.90;41.50
36498;DHT22;22513;51.222;6.480;2024-01-16T09:51:28;19.90;41.50
36498;DHT22;22513;51.222;6.480;2024-01-16T09:53:54;19.90;41.50
36498;DHT22;22513;51.222;6.480;2024-01-16T09:56:22;19.90;41.40
36498;DHT22;22513;51.222;6.480;2024-01-16T09:58:50;19.90;41.40
36498;DHT22;22513;51.222;6.480;2024-01-16T10:01:19;19.90;41.40
36498;DHT22;22513;51.222;6.480;2024-01-16T10:03:45;19.90;41.30
36498;DHT22;22513;51.222;6.480;2024-01-16T10:06:12;19.90;41.30
36498;DHT22;22513;51.222;6.480;2024-01-16T10:08:39;19.90;41.30
36498;DHT22;22513;51.222;6.480;2024-01-16T10:11:05;19.90;41.30
36498;DHT22;22513;51.222;6.480;2024-01-16T10:13:32;19.90;41.20
36498;DHT22;22513;51.222;6.480;2024-01-16T10:15:58;20.00;41.20
36498;DHT22;22513;51.222;6.480;2024-01-16T10:18:26;20.00;41.20
36498;DHT22;22513;51.222;6.480;2024-01-16T10:20:52;20.00;41.10
36498;DHT22;22513;51.222;6.480;2024-01-16T10:23:26;20.00;41.10
36498;DHT22;22513;51.222;6.480;2024-01-16T10:26:10;20.00;41.00
36498;DHT22;22513;51.222;6.480;2024-01-16T10:28:43;20.00;41.00
36498;DHT22;22513;51.222;6.480;2024-01-16T10:31:12;20.00;40.90
36498;DHT22;22513;51.222;6.480;2024-01-16T10:33:41;20.00;40.90
36498;DHT22;22513;51.222;6.480;2024-01-16T10:38:37;20.10;40.90
36498;DHT22;22513;51.222;6.480;2024-01-16T10:41:16;20.10;41.00
36498;DHT22;22513;51.222;6.480;2024-01-16T10:43:43;20.10;41.30
36498;DHT22;22513;51.222;6.480;2024-01-16T10:46:17;20.20;42.40
36498;DHT22;22513;51.222;6.480;2024-01-16T10:48:44;20.30;42.10
36498;DHT22;22513;51.222;6.480;2024-01-16T10:51:14;20.40;42.30
36498;DHT22;22513;51.222;6.480;2024-01-16T10:53:44;20.50;42.40
36498;DHT22;22513;51.222;6.480;2024-01-16T10:56:12;20.60;42.40
36498;DHT22;22513;51.222;6.480;2024-01-16T10:58:41;20.80;42.30
36498;DHT22;22513;51.222;6.480;2024-01-16T11:01:10;20.90;42.10
36498;DHT22;22513;51.222;6.480;2024-01-16T11:03:40;21.10;42.70
36498;DHT22;22513;51.222;6.480;2024-01-16T11:06:08;21.20;41.80
36498;DHT22;22513;51.222;6.480;2024-01-16T11:08:38;21.30;41.60
36498;DHT22;22513;51.222;6.480;2024-01-16T11:11:04;21.50;41.40
36498;DHT22;22513;51.222;6.480;2024-01-16T11:13:34;21.60;41.20
36498;DHT22;22513;51.222;6.480;2024-01-16T11:16:03;21.80;41.00
36498;DHT22;22513;51.222;6.480;2024-01-16T11:18:31;21.90;40.70
36498;DHT22;22513;51.222;6.480;2024-01-16T11:20:58;22.10;40.60
36498;DHT22;22513;51.222;6.480;2024-01-16T11:23:24;22.20;40.40
36498;DHT22;22513;51.222;6.480;2024-01-16T11:25:50;22.40;40.20
36498;DHT22;22513;51.222;6.480;2024-01-16T11:28:15;22.50;40.00
36498;DHT22;22513;51.222;6.480;2024-01-16T11:30:42;22.60;39.80
36498;DHT22;22513;51.222;6.480;2024-01-16T11:35:58;22.80;39.40
36498;DHT22;22513;51.222;6.480;2024-01-16T11:38:25;22.80;39.30
36498;DHT22;22513;51.222;6.480;2024-01-16T11:40:54;22.90;39.20
36498;DHT22;22513;51.222;6.480;2024-01-16T11:46:05;23.00;38.80
36498;DHT22;22513;51.222;6.480;2024-01-16T11:48:31;23.10;38.80
36498;DHT22;22513;51.222;6.480;2024-01-16T11:50:57;23.10;38.70
36498;DHT22;22513;51.222;6.480;2024-01-16T11:58:49;23.20;39.10
36498;DHT22;22513;51.222;6.480;2024-01-16T12:01:22;23.20;38.20
36498;DHT22;22513;51.222;6.480;2024-01-16T12:04:07;23.30;38.20
36498;DHT22;22513;51.222;6.480;2024-01-16T12:06:35;23.30;38.00
36498;DHT22;22513;51.222;6.480;2024-01-16T12:09:13;23.30;38.00
36498;DHT22;22513;51.222;6.480;2024-01-16T12:11:43;23.30;37.80
36498;DHT22;22513;51.222;6.480;2024-01-16T12:14:11;23.30;37.80
36498;DHT22;22513;51.222;6.480;2024-01-16T12:16:37;23.40;37.70
36498;DHT22;22513;51.222;6.480;2024-01-16T12:19:10;23.40;37.60
36498;DHT22;22513;51.222;6.480;2024-01-16T12:21:42;23.40;37.50
36498;DHT22;22513;51.222;6.480;2024-01-16T12:24:10;23.40;37.40
36498;DHT22;22513;51.222;6.480;2024-01-16T12:26:36;23.50;37.40
36498;DHT22;22513;51.222;6.480;2024-01-16T12:29:02;23.50;37.50
36498;DHT22;22513;51.222;6.480;2024-01-16T12:31:28;23.50;37.20
36498;DHT22;22513;51.222;6.480;2024-01-16T12:34:14;23.50;37.10
36498;DHT22;22513;51.222;6.480;2024-01-16T12:36:40;23.50;36.90
36498;DHT22;22513;51.222;6.480;2024-01-16T12:39:06;23.50;37.00
36498;DHT22;22513;51.222;6.480;2024-01-16T12:44:01;23.50;36.80
36498;DHT22;22513;51.222;6.480;2024-01-16T12:46:27;23.60;36.90
36498;DHT22;22513;51.222;6.480;2024-01-16T12:48:52;23.60;36.80
36498;DHT22;22513;51.222;6.480;2024-01-16T12:51:20;23.60;36.70
36498;DHT22;22513;51.222;6.480;2024-01-16T12:53:49;23.60;36.60
36498;DHT22;22513;51.222;6.480;2024-01-16T12:56:19;23.60;36.80
36498;DHT22;22513;51.222;6.480;2024-01-16T12:58:45;23.70;36.70
36498;DHT22;22513;51.222;6.480;2024-01-16T13:01:27;23.70;36.60
36498;DHT22;22513;51.222;6.480;2024-01-16T13:03:54;23.60;36.40
36498;DHT22;22513;51.222;6.480;2024-01-16T13:06:22;23.60;36.40
36498;DHT22;22513;51.222;6.480;2024-01-16T13:08:48;23.60;36.30
36498;DHT22;22513;51.222;6.480;2024-01-16T13:11:16;23.60;36.30
36498;DHT22;22513;51.222;6.480;2024-01-16T13:13:46;23.70;36.30
36498;DHT22;22513;51.222;6.480;2024-01-16T13:16:12;23.60;36.20
36498;DHT22;22513;51.222;6.480;2024-01-16T13:18:38;23.70;36.20
36498;DHT22;22513;51.222;6.480;2024-01-16T13:21:03;23.70;36.10
36498;DHT22;22513;51.222;6.480;2024-01-16T13:23:29;23.60;36.00
36498;DHT22;22513;51.222;6.480;2024-01-16T13:25:56;23.70;36.00
36498;DHT22;22513;51.222;6.480;2024-01-16T13:28:23;23.60;36.10
36498;DHT22;22513;51.222;6.480;2024-01-16T13:30:50;23.60;36.00
36498;DHT22;22513;51.222;6.480;2024-01-16T13:33:16;23.60;36.00
36498;DHT22;22513;51.222;6.480;2024-01-16T13:35:43;23.70;35.90
36498;DHT22;22513;51.222;6.480;2024-01-16T13:38:09;23.70;35.90
36498;DHT22;22513;51.222;6.480;2024-01-16T13:40:36;23.70;35.80
36498;DHT22;22513;51.222;6.480;2024-01-16T13:43:05;23.70;35.70
36498;DHT22;22513;51.222;6.480;2024-01-16T13:45:32;23.70;35.70
36498;DHT22;22513;51.222;6.480;2024-01-16T13:47:58;23.70;35.70
36498;DHT22;22513;51.222;6.480;2024-01-16T13:50:26;23.70;35.60
36498;DHT22;22513;51.222;6.480;2024-01-16T13:52:51;23.50;35.60
36498;DHT22;22513;51.222;6.480;2024-01-16T13:55:18;23.40;35.70
36498;DHT22;22513;51.222;6.480;2024-01-16T13:57:43;23.20;35.80
36498;DHT22;22513;51.222;6.480;2024-01-16T14:00:11;23.10;35.80
36498;DHT22;22513;51.222;6.480;2024-01-16T14:02:43;22.90;35.90
36498;DHT22;22513;51.222;6.480;2024-01-16T14:05:13;22.80;36.00
36498;DHT22;22513;51.222;6.480;2024-01-16T14:07:52;22.70;36.10
36498;DHT22;22513;51.222;6.480;2024-01-16T14:10:18;22.50;36.10
36498;DHT22;22513;51.222;6.480;2024-01-16T14:12:46;22.40;36.20
36498;DHT22;22513;51.222;6.480;2024-01-16T14:15:12;22.30;36.30
36498;DHT22;22513;51.222;6.480;2024-01-16T14:18:02;22.20;36.60
36498;DHT22;22513;51.222;6.480;2024-01-16T14:20:28;22.10;36.90
36498;DHT22;22513;51.222;6.480;2024-01-16T14:22:54;22.00;37.00
36498;DHT22;22513;51.222;6.480;2024-01-16T14:25:20;22.00;37.00
36498;DHT22;22513;51.222;6.480;2024-01-16T14:27:56;22.00;37.00
36498;DHT22;22513;51.222;6.480;2024-01-16T14:30:23;22.10;37.10
36498;DHT22;22513;51.222;6.480;2024-01-16T14:32:50;22.10;37.00
36498;DHT22;22513;51.222;6.480;2024-01-16T14:35:16;22.20;37.00
36498;DHT22;22513;51.222;6.480;2024-01-16T14:37:43;22.30;36.90
36498;DHT22;22513;51.222;6.480;2024-01-16T14:40:09;22.40;36.80
36498;DHT22;22513;51.222;6.480;2024-01-16T14:42:42;22.50;36.70
36498;DHT22;22513;51.222;6.480;2024-01-16T14:45:10;22.60;36.60
36498;DHT22;22513;51.222;6.480;2024-01-16T14:47:38;22.70;36.50
36498;DHT22;22513;51.222;6.480;2024-01-16T14:50:06;22.80;36.30
36498;DHT22;22513;51.222;6.480;2024-01-16T14:52:32;22.90;36.20
36498;DHT22;22513;51.222;6.480;2024-01-16T14:54:58;22.90;36.10
36498;DHT22;22513;51.222;6.480;2024-01-16T14:57:25;23.00;36.00
36498;DHT22;22513;51.222;6.480;2024-01-16T14:59:50;23.10;35.90
36498;DHT22;22513;51.222;6.480;2024-01-16T15:02:16;23.10;35.80
36498;DHT22;22513;51.222;6.480;2024-01-16T15:04:42;23.20;36.40
36498;DHT22;22513;51.222;6.480;2024-01-16T15:07:09;23.20;35.70
36498;DHT22;22513;51.222;6.480;2024-01-16T15:09:34;23.30;35.60
36498;DHT22;22513;51.222;6.480;2024-01-16T15:12:12;23.30;35.60
36498;DHT22;22513;51.222;6.480;2024-01-16T15:14:38;23.30;35.60
36498;DHT22;22513;51.222;6.480;2024-01-16T15:17:04;23.30;35.50
36498;DHT22;22513;51.222;6.480;2024-01-16T15:19:30;23.30;35.40
36498;DHT22;22513;51.222;6.480;2024-01-16T15:21:56;23.40;35.30
36498;DHT22;22513;51.222;6.480;2024-01-16T15:24:21;23.40;35.30
36498;DHT22;22513;51.222;6.480;2024-01-16T15:26:54;23.40;35.30
36498;DHT22;22513;51.222;6.480;2024-01-16T15:29:20;23.40;35.20
36498;DHT22;22513;51.222;6.480;2024-01-16T15:31:46;23.40;35.20
36498;DHT22;22513;51.222;6.480;2024-01-16T15:34:12;23.40;35.20
36498;DHT22;22513;51.222;6.480;2024-01-16T15:36:37;23.40;35.20
36498;DHT22;22513;51.222;6.480;2024-01-16T15:39:03;23.40;35.10
36498;DHT22;22513;51.222;6.480;2024-01-16T15:41:29;23.40;35.00
36498;DHT22;22513;51.222;6.480;2024-01-16T15:43:55;23.40;35.00